sensor_id;sensor_type;location;lat;lon;timestamp;pressure;altitude;pressure_sealevel;temperature;humidity
3434;BME280;1730;41.932;25.548;2023-04-21T00:02:12;100443.59;;;12.74;100.00
3434;BME280;1730;41.932;25.548;2023-04-21T00:04:40;100481.06;;;12.78;100.00
3434;BME280;1730;41.932;25.548;2023-04-21T00:07:06;100487.56;;;12.56;100.00
3434;BME280;1730;41.932;25.548;2023-04-21T00:09:32;100508.22;;;12.57;100.00
3434;BME280;1730;41.932;25.548;2023-04-21T00:11:58;100441.31;;;12.10;100.00
3434;BME280;1730;41.932;25.548;2023-04-21T00:14:23;100515.34;;;12.49;100.00
3434;BME280;1730;41.932;25.548;2023-04-21T00:16:49;100521.16;;;12.44;100.00
3434;BME280;1730;41.932;25.548;2023-04-21T00:19:17;100461.19;;;11.99;100.00
3434;BME280;1730;41.932;25.548;2023-04-21T00:21:44;100510.00;;;12.28;100.00
3434;BME280;1730;41.932;25.548;2023-04-21T00:24:10;100503.97;;;12.25;100.00
3434;BME280;1730;41.932;25.548;2023-04-21T00:26:35;100521.63;;;12.29;100.00
3434;BME280;1730;41.932;25.548;2023-04-21T00:29:01;100427.59;;;11.71;100.00
3434;BME280;1730;41.932;25.548;2023-04-21T00:31:26;100467.22;;;12.12;100.00
3434;BME280;1730;41.932;25.548;2023-04-21T00:33:52;100435.78;;;12.21;100.00
3434;BME280;1730;41.932;25.548;2023-04-21T00:36:18;100377.69;;;12.06;100.00
3434;BME280;1730;41.932;25.548;2023-04-21T00:38:44;100346.19;;;11.86;100.00
3434;BME280;1730;41.932;25.548;2023-04-21T00:41:09;100344.66;;;11.93;100.00
3434;BME280;1730;41.932;25.548;2023-04-21T00:43:35;100292.50;;;11.41;100.00
3434;BME280;1730;41.932;25.548;2023-04-21T00:46:01;100377.72;;;11.76;100.00
3434;BME280;1730;41.932;25.548;2023-04-21T00:48:26;100420.56;;;11.80;100.00
3434;BME280;1730;41.932;25.548;2023-04-21T00:50:52;100423.19;;;11.70;100.00
3434;BME280;1730;41.932;25.548;2023-04-21T00:53:18;100417.47;;;11.85;100.00
3434;BME280;1730;41.932;25.548;2023-04-21T00:55:44;100385.59;;;11.67;100.00
3434;BME280;1730;41.932;25.548;2023-04-21T00:58:10;100406.44;;;11.77;100.00
3434;BME280;1730;41.932;25.548;2023-04-21T01:00:37;100373.91;;;11.57;100.00
3434;BME280;1730;41.932;25.548;2023-04-21T01:03:04;100330.78;;;11.46;100.00
3434;BME280;1730;41.932;25.548;2023-04-21T01:05:30;100318.87;;;11.28;100.00
3434;BME280;1730;41.932;25.548;2023-04-21T01:07:56;100350.03;;;11.32;100.00
3434;BME280;1730;41.932;25.548;2023-04-21T01:10:22;100317.19;;;11.06;100.00
3434;BME280;1730;41.932;25.548;2023-04-21T01:12:47;100366.28;;;11.42;100.00
3434;BME280;1730;41.932;25.548;2023-04-21T01:15:15;100254.44;;;10.83;100.00
3434;BME280;1730;41.932;25.548;2023-04-21T01:17:41;100317.84;;;11.19;100.00
3434;BME280;1730;41.932;25.548;2023-04-21T01:20:08;100333.62;;;11.24;100.00
3434;BME280;1730;41.932;25.548;2023-04-21T01:22:38;100331.56;;;11.27;100.00
3434;BME280;1730;41.932;25.548;2023-04-21T01:25:06;100324.75;;;11.33;100.00
3434;BME280;1730;41.932;25.548;2023-04-21T01:27:32;100316.16;;;11.18;100.00
3434;BME280;1730;41.932;25.548;2023-04-21T01:29:57;100306.75;;;11.13;100.00
3434;BME280;1730;41.932;25.548;2023-04-21T01:32:25;100320.94;;;11.15;100.00
3434;BME280;1730;41.932;25.548;2023-04-21T01:34:51;100306.66;;;11.24;100.00
3434;BME280;1730;41.932;25.548;2023-04-21T01:37:20;100313.34;;;11.29;100.00
3434;BME280;1730;41.932;25.548;2023-04-21T01:39:51;100307.87;;;11.41;100.00
3434;BME280;1730;41.932;25.548;2023-04-21T01:42:20;100287.09;;;11.32;100.00
3434;BME280;1730;41.932;25.548;2023-04-21T01:44:46;100280.84;;;11.10;100.00
3434;BME280;1730;41.932;25.548;2023-04-21T01:47:14;100280.66;;;11.23;100.00
3434;BME280;1730;41.932;25.548;2023-04-21T01:49:39;100227.84;;;11.00;100.00
3434;BME280;1730;41.932;25.548;2023-04-21T01:52:05;100238.22;;;11.04;100.00
3434;BME280;1730;41.932;25.548;2023-04-21T01:54:30;100221.97;;;10.95;100.00
3434;BME280;1730;41.932;25.548;2023-04-21T01:56:56;100222.97;;;10.94;100.00
3434;BME280;1730;41.932;25.548;2023-04-21T01:59:22;100216.13;;;10.90;100.00
3434;BME280;1730;41.932;25.548;2023-04-21T02:01:47;100221.41;;;10.91;100.00
3434;BME280;1730;41.932;25.548;2023-04-21T02:04:13;100224.56;;;10.96;100.00
3434;BME280;1730;41.932;25.548;2023-04-21T02:06:38;100152.13;;;10.61;100.00
3434;BME280;1730;41.932;25.548;2023-04-21T02:09:04;100187.47;;;10.98;100.00
3434;BME280;1730;41.932;25.548;2023-04-21T02:11:31;100162.16;;;10.90;100.00
3434;BME280;1730;41.932;25.548;2023-04-21T02:13:57;100151.06;;;10.83;100.00
3434;BME280;1730;41.932;25.548;2023-04-21T02:16:23;100132.91;;;10.85;100.00
3434;BME280;1730;41.932;25.548;2023-04-21T02:18:52;100156.50;;;10.93;100.00
3434;BME280;1730;41.932;25.548;2023-04-21T02:21:18;100134.66;;;10.65;100.00
3434;BME280;1730;41.932;25.548;2023-04-21T02:23:45;100161.25;;;10.70;100.00
3434;BME280;1730;41.932;25.548;2023-04-21T02:26:10;100125.66;;;10.25;100.00
3434;BME280;1730;41.932;25.548;2023-04-21T02:28:36;100234.97;;;10.59;100.00
3434;BME280;1730;41.932;25.548;2023-04-21T02:31:01;100271.28;;;10.55;100.00
3434;BME280;1730;41.932;25.548;2023-04-21T02:33:27;100270.97;;;10.49;100.00
3434;BME280;1730;41.932;25.548;2023-04-21T02:35:52;100304.44;;;10.67;100.00
3434;BME280;1730;41.932;25.548;2023-04-21T02:38:18;100307.28;;;10.65;100.00
3434;BME280;1730;41.932;25.548;2023-04-21T02:40:43;100330.16;;;10.71;100.00
3434;BME280;1730;41.932;25.548;2023-04-21T02:43:09;100356.91;;;10.95;100.00
3434;BME280;1730;41.932;25.548;2023-04-21T02:45:35;100314.97;;;10.91;100.00
3434;BME280;1730;41.932;25.548;2023-04-21T02:48:01;100304.06;;;10.92;100.00
3434;BME280;1730;41.932;25.548;2023-04-21T02:50:26;100243.84;;;10.50;100.00
3434;BME280;1730;41.932;25.548;2023-04-21T02:52:52;100244.72;;;10.51;100.00
3434;BME280;1730;41.932;25.548;2023-04-21T02:55:17;100258.72;;;10.65;100.00
3434;BME280;1730;41.932;25.548;2023-04-21T02:57:43;100255.44;;;10.62;100.00
3434;BME280;1730;41.932;25.548;2023-04-21T03:00:09;100250.31;;;10.59;100.00
3434;BME280;1730;41.932;25.548;2023-04-21T03:02:36;100222.81;;;10.44;100.00
3434;BME280;1730;41.932;25.548;2023-04-21T03:05:02;100110.94;;;9.97;100.00
3434;BME280;1730;41.932;25.548;2023-04-21T03:07:28;100159.34;;;10.40;100.00
3434;BME280;1730;41.932;25.548;2023-04-21T03:09:54;100194.94;;;10.34;100.00
3434;BME280;1730;41.932;25.548;2023-04-21T03:12:19;100052.16;;;9.29;100.00
3434;BME280;1730;41.932;25.548;2023-04-21T03:14:45;100253.97;;;10.37;100.00
3434;BME280;1730;41.932;25.548;2023-04-21T03:17:10;100273.97;;;10.34;100.00
3434;BME280;1730;41.932;25.548;2023-04-21T03:19:36;100300.63;;;10.49;100.00
3434;BME280;1730;41.932;25.548;2023-04-21T03:22:01;100268.31;;;10.37;100.00
3434;BME280;1730;41.932;25.548;2023-04-21T03:24:28;100211.50;;;9.98;100.00
3434;BME280;1730;41.932;25.548;2023-04-21T03:26:54;100253.22;;;10.03;100.00
3434;BME280;1730;41.932;25.548;2023-04-21T03:29:21;100290.56;;;10.08;100.00
3434;BME280;1730;41.932;25.548;2023-04-21T03:31:47;100318.37;;;10.08;100.00
3434;BME280;1730;41.932;25.548;2023-04-21T03:34:12;100332.34;;;10.02;100.00
3434;BME280;1730;41.932;25.548;2023-04-21T03:36:37;100328.06;;;10.00;100.00
3434;BME280;1730;41.932;25.548;2023-04-21T03:39:03;100309.91;;;10.13;100.00
3434;BME280;1730;41.932;25.548;2023-04-21T03:41:30;100246.87;;;9.93;100.00
3434;BME280;1730;41.932;25.548;2023-04-21T03:43:55;100237.34;;;10.00;100.00
3434;BME280;1730;41.932;25.548;2023-04-21T03:46:21;100225.72;;;9.88;100.00
3434;BME280;1730;41.932;25.548;2023-04-21T03:48:47;100221.16;;;10.00;100.00
3434;BME280;1730;41.932;25.548;2023-04-21T03:51:13;100201.25;;;10.12;100.00
3434;BME280;1730;41.932;25.548;2023-04-21T03:53:39;100182.72;;;9.98;100.00
3434;BME280;1730;41.932;25.548;2023-04-21T03:56:05;100179.50;;;10.04;100.00
3434;BME280;1730;41.932;25.548;2023-04-21T03:58:31;100175.72;;;10.27;100.00
3434;BME280;1730;41.932;25.548;2023-04-21T04:00:56;100115.81;;;10.45;100.00
3434;BME280;1730;41.932;25.548;2023-04-21T04:03:22;100071.81;;;10.74;100.00
3434;BME280;1730;41.932;25.548;2023-04-21T04:05:47;99992.59;;;10.75;100.00
3434;BME280;1730;41.932;25.548;2023-04-21T04:08:13;99949.16;;;11.07;100.00
3434;BME280;1730;41.932;25.548;2023-04-21T04:10:38;99807.19;;;10.58;100.00
3434;BME280;1730;41.932;25.548;2023-04-21T04:13:04;99819.94;;;11.04;100.00
3434;BME280;1730;41.932;25.548;2023-04-21T04:15:30;99744.22;;;11.43;100.00
3434;BME280;1730;41.932;25.548;2023-04-21T04:17:55;99693.09;;;11.86;100.00
3434;BME280;1730;41.932;25.548;2023-04-21T04:20:21;99617.38;;;11.78;100.00
3434;BME280;1730;41.932;25.548;2023-04-21T04:22:46;99591.72;;;12.00;100.00
3434;BME280;1730;41.932;25.548;2023-04-21T04:25:12;99548.81;;;11.79;100.00
3434;BME280;1730;41.932;25.548;2023-04-21T04:27:44;99533.66;;;11.86;100.00
3434;BME280;1730;41.932;25.548;2023-04-21T04:30:11;99500.25;;;12.13;100.00
3434;BME280;1730;41.932;25.548;2023-04-21T04:32:37;99422.81;;;12.38;100.00
3434;BME280;1730;41.932;25.548;2023-04-21T04:35:04;99362.31;;;12.47;100.00
3434;BME280;1730;41.932;25.548;2023-04-21T04:37:30;99332.78;;;12.61;100.00
3434;BME280;1730;41.932;25.548;2023-04-21T04:39:56;99286.78;;;12.86;100.00
3434;BME280;1730;41.932;25.548;2023-04-21T04:42:22;99247.22;;;12.60;100.00
3434;BME280;1730;41.932;25.548;2023-04-21T04:44:52;99237.56;;;13.06;100.00
3434;BME280;1730;41.932;25.548;2023-04-21T04:47:18;99188.13;;;13.29;100.00
3434;BME280;1730;41.932;25.548;2023-04-21T04:49:43;99151.38;;;13.26;100.00
3434;BME280;1730;41.932;25.548;2023-04-21T04:52:09;99023.72;;;12.68;100.00
3434;BME280;1730;41.932;25.548;2023-04-21T04:54:34;99117.31;;;14.16;100.00
3434;BME280;1730;41.932;25.548;2023-04-21T04:57:00;99083.59;;;14.33;100.00
3434;BME280;1730;41.932;25.548;2023-04-21T04:59:27;99049.97;;;14.42;100.00
3434;BME280;1730;41.932;25.548;2023-04-21T05:01:52;98976.25;;;14.02;100.00
3434;BME280;1730;41.932;25.548;2023-04-21T05:04:18;99007.72;;;14.84;100.00
3434;BME280;1730;41.932;25.548;2023-04-21T05:06:44;98953.00;;;15.38;100.00
3434;BME280;1730;41.932;25.548;2023-04-21T05:09:09;98908.16;;;15.69;100.00
3434;BME280;1730;41.932;25.548;2023-04-21T05:11:35;98882.88;;;15.75;100.00
3434;BME280;1730;41.932;25.548;2023-04-21T05:14:00;98873.63;;;15.98;100.00
3434;BME280;1730;41.932;25.548;2023-04-21T05:16:26;98792.28;;;15.96;100.00
3434;BME280;1730;41.932;25.548;2023-04-21T05:18:51;98828.13;;;16.19;100.00
3434;BME280;1730;41.932;25.548;2023-04-21T05:21:26;98809.31;;;16.79;100.00
3434;BME280;1730;41.932;25.548;2023-04-21T05:23:56;98796.34;;;16.87;100.00
3434;BME280;1730;41.932;25.548;2023-04-21T05:26:22;98805.00;;;16.50;100.00
3434;BME280;1730;41.932;25.548;2023-04-21T05:28:48;98798.84;;;16.76;100.00
3434;BME280;1730;41.932;25.548;2023-04-21T05:31:13;98748.78;;;17.03;100.00
3434;BME280;1730;41.932;25.548;2023-04-21T05:33:39;98762.81;;;17.66;100.00
3434;BME280;1730;41.932;25.548;2023-04-21T05:36:08;98746.59;;;17.84;100.00
3434;BME280;1730;41.932;25.548;2023-04-21T05:38:35;98735.78;;;18.60;100.00
3434;BME280;1730;41.932;25.548;2023-04-21T05:41:01;98737.22;;;18.62;100.00
3434;BME280;1730;41.932;25.548;2023-04-21T05:43:26;98739.84;;;18.82;100.00
3434;BME280;1730;41.932;25.548;2023-04-21T05:45:52;98729.16;;;18.74;100.00
3434;BME280;1730;41.932;25.548;2023-04-21T05:48:17;98721.88;;;18.92;100.00
3434;BME280;1730;41.932;25.548;2023-04-21T05:50:43;98637.94;;;19.18;100.00
3434;BME280;1730;41.932;25.548;2023-04-21T05:53:08;98710.59;;;19.07;100.00
3434;BME280;1730;41.932;25.548;2023-04-21T05:55:34;98695.25;;;19.06;100.00
3434;BME280;1730;41.932;25.548;2023-04-21T05:58:00;98692.75;;;19.29;100.00
3434;BME280;1730;41.932;25.548;2023-04-21T06:00:26;98705.94;;;19.75;100.00
3434;BME280;1730;41.932;25.548;2023-04-21T06:02:51;98714.28;;;19.62;100.00
3434;BME280;1730;41.932;25.548;2023-04-21T06:05:17;98637.66;;;19.08;100.00
3434;BME280;1730;41.932;25.548;2023-04-21T06:07:42;98724.31;;;19.50;100.00
3434;BME280;1730;41.932;25.548;2023-04-21T06:10:09;98703.41;;;19.92;100.00
3434;BME280;1730;41.932;25.548;2023-04-21T06:12:35;98702.12;;;19.76;100.00
3434;BME280;1730;41.932;25.548;2023-04-21T06:15:01;98709.69;;;19.13;100.00
3434;BME280;1730;41.932;25.548;2023-04-21T06:17:26;98730.81;;;18.75;100.00
3434;BME280;1730;41.932;25.548;2023-04-21T06:19:52;98725.41;;;19.00;100.00
3434;BME280;1730;41.932;25.548;2023-04-21T06:22:19;98679.31;;;18.16;100.00
3434;BME280;1730;41.932;25.548;2023-04-21T06:24:45;98724.88;;;18.84;100.00
3434;BME280;1730;41.932;25.548;2023-04-21T06:27:11;98709.38;;;18.47;100.00
3434;BME280;1730;41.932;25.548;2023-04-21T06:29:39;98717.56;;;18.47;100.00
3434;BME280;1730;41.932;25.548;2023-04-21T06:32:04;98706.66;;;19.03;100.00
3434;BME280;1730;41.932;25.548;2023-04-21T06:34:30;98710.44;;;19.02;100.00
3434;BME280;1730;41.932;25.548;2023-04-21T06:36:55;98673.50;;;18.37;100.00
3434;BME280;1730;41.932;25.548;2023-04-21T06:39:21;98695.69;;;18.16;100.00
3434;BME280;1730;41.932;25.548;2023-04-21T06:41:46;98712.63;;;18.62;100.00
3434;BME280;1730;41.932;25.548;2023-04-21T06:44:13;98721.63;;;18.69;100.00
3434;BME280;1730;41.932;25.548;2023-04-21T06:46:39;98722.09;;;18.22;100.00
3434;BME280;1730;41.932;25.548;2023-04-21T06:49:06;98718.78;;;18.82;100.00
3434;BME280;1730;41.932;25.548;2023-04-21T06:51:31;98719.16;;;19.17;100.00
3434;BME280;1730;41.932;25.548;2023-04-21T06:53:57;98720.81;;;18.94;100.00
3434;BME280;1730;41.932;25.548;2023-04-21T06:56:22;98724.84;;;18.60;100.00
3434;BME280;1730;41.932;25.548;2023-04-21T06:58:48;98693.03;;;18.72;100.00
3434;BME280;1730;41.932;25.548;2023-04-21T07:01:13;98726.56;;;19.10;100.00
3434;BME280;1730;41.932;25.548;2023-04-21T07:03:39;98722.59;;;19.06;100.00
3434;BME280;1730;41.932;25.548;2023-04-21T07:06:05;98716.78;;;18.96;100.00
3434;BME280;1730;41.932;25.548;2023-04-21T07:08:31;98716.19;;;19.44;100.00
3434;BME280;1730;41.932;25.548;2023-04-21T07:10:56;98702.72;;;18.68;100.00
3434;BME280;1730;41.932;25.548;2023-04-21T07:13:21;98730.56;;;18.52;100.00
3434;BME280;1730;41.932;25.548;2023-04-21T07:15:47;98736.19;;;18.19;100.00
3434;BME280;1730;41.932;25.548;2023-04-21T07:18:13;98712.84;;;18.23;100.00
3434;BME280;1730;41.932;25.548;2023-04-21T07:20:38;98730.31;;;18.91;100.00
3434;BME280;1730;41.932;25.548;2023-04-21T07:23:04;98746.09;;;18.82;100.00
3434;BME280;1730;41.932;25.548;2023-04-21T07:25:29;98759.28;;;18.61;100.00
3434;BME280;1730;41.932;25.548;2023-04-21T07:27:55;98735.91;;;18.96;100.00
3434;BME280;1730;41.932;25.548;2023-04-21T07:30:20;98768.25;;;17.72;100.00
3434;BME280;1730;41.932;25.548;2023-04-21T07:32:46;98756.72;;;17.77;100.00
3434;BME280;1730;41.932;25.548;2023-04-21T07:35:11;98749.97;;;18.30;100.00
3434;BME280;1730;41.932;25.548;2023-04-21T07:37:37;98740.72;;;17.87;100.00
3434;BME280;1730;41.932;25.548;2023-04-21T07:40:06;98750.31;;;18.47;100.00
3434;BME280;1730;41.932;25.548;2023-04-21T07:42:32;98745.16;;;18.32;100.00
3434;BME280;1730;41.932;25.548;2023-04-21T07:44:58;98755.44;;;18.30;100.00
3434;BME280;1730;41.932;25.548;2023-04-21T07:47:25;98744.84;;;18.54;100.00
3434;BME280;1730;41.932;25.548;2023-04-21T07:49:51;98740.00;;;18.56;100.00
3434;BME280;1730;41.932;25.548;2023-04-21T07:52:16;98710.25;;;18.34;100.00
3434;BME280;1730;41.932;25.548;2023-04-21T07:54:42;98712.34;;;18.77;100.00
3434;BME280;1730;41.932;25.548;2023-04-21T07:57:07;98698.19;;;18.48;100.00
3434;BME280;1730;41.932;25.548;2023-04-21T07:59:33;98675.16;;;18.07;100.00
3434;BME280;1730;41.932;25.548;2023-04-21T08:01:58;98727.81;;;18.83;100.00
3434;BME280;1730;41.932;25.548;2023-04-21T08:04:24;98723.09;;;18.72;100.00
3434;BME280;1730;41.932;25.548;2023-04-21T08:06:50;98631.78;;;17.92;100.00
3434;BME280;1730;41.932;25.548;2023-04-21T08:09:15;98712.34;;;19.02;100.00
3434;BME280;1730;41.932;25.548;2023-04-21T08:11:41;98709.22;;;18.98;100.00
3434;BME280;1730;41.932;25.548;2023-04-21T08:14:06;98629.28;;;18.22;100.00
3434;BME280;1730;41.932;25.548;2023-04-21T08:16:34;98713.87;;;18.66;100.00
3434;BME280;1730;41.932;25.548;2023-04-21T08:18:59;98707.00;;;18.57;100.00
3434;BME280;1730;41.932;25.548;2023-04-21T08:21:25;98704.84;;;18.66;100.00
3434;BME280;1730;41.932;25.548;2023-04-21T08:23:50;98694.19;;;18.82;100.00
3434;BME280;1730;41.932;25.548;2023-04-21T08:26:16;98690.97;;;19.35;100.00
3434;BME280;1730;41.932;25.548;2023-04-21T08:28:45;98675.66;;;19.34;100.00
3434;BME280;1730;41.932;25.548;2023-04-21T08:31:12;98594.62;;;18.78;100.00
3434;BME280;1730;41.932;25.548;2023-04-21T08:33:38;98665.56;;;19.34;100.00
3434;BME280;1730;41.932;25.548;2023-04-21T08:36:04;98578.28;;;19.15;100.00
3434;BME280;1730;41.932;25.548;2023-04-21T08:38:30;98598.56;;;19.25;100.00
3434;BME280;1730;41.932;25.548;2023-04-21T08:40:58;98635.97;;;19.50;100.00
3434;BME280;1730;41.932;25.548;2023-04-21T08:43:24;98631.59;;;19.24;100.00
3434;BME280;1730;41.932;25.548;2023-04-21T08:45:50;98634.53;;;19.47;100.00
3434;BME280;1730;41.932;25.548;2023-04-21T08:48:20;98618.34;;;19.94;100.00
3434;BME280;1730;41.932;25.548;2023-04-21T08:50:50;98568.75;;;20.02;100.00
3434;BME280;1730;41.932;25.548;2023-04-21T08:53:16;98582.56;;;20.07;100.00
3434;BME280;1730;41.932;25.548;2023-04-21T08:55:43;98561.06;;;19.80;100.00
3434;BME280;1730;41.932;25.548;2023-04-21T08:58:09;98612.84;;;20.23;100.00
3434;BME280;1730;41.932;25.548;2023-04-21T09:00:35;98613.75;;;20.06;100.00
3434;BME280;1730;41.932;25.548;2023-04-21T09:03:01;98600.81;;;19.83;100.00
3434;BME280;1730;41.932;25.548;2023-04-21T09:05:30;98586.53;;;19.81;100.00
3434;BME280;1730;41.932;25.548;2023-04-21T09:08:12;98608.34;;;20.17;100.00
3434;BME280;1730;41.932;25.548;2023-04-21T09:10:58;98599.44;;;20.75;100.00
3434;BME280;1730;41.932;25.548;2023-04-21T09:13:36;98523.41;;;20.06;100.00
3434;BME280;1730;41.932;25.548;2023-04-21T09:16:04;98599.66;;;20.85;100.00
3434;BME280;1730;41.932;25.548;2023-04-21T09:18:31;98588.69;;;20.62;100.00
3434;BME280;1730;41.932;25.548;2023-04-21T09:21:12;98590.34;;;20.51;100.00
3434;BME280;1730;41.932;25.548;2023-04-21T09:23:43;98587.16;;;21.01;100.00
3434;BME280;1730;41.932;25.548;2023-04-21T09:26:09;98581.19;;;20.57;99.66
3434;BME280;1730;41.932;25.548;2023-04-21T09:28:35;98544.50;;;20.70;100.00
3434;BME280;1730;41.932;25.548;2023-04-21T09:31:01;98575.81;;;20.86;100.00
3434;BME280;1730;41.932;25.548;2023-04-21T09:33:32;98535.94;;;20.66;100.00
3434;BME280;1730;41.932;25.548;2023-04-21T09:35:59;98573.66;;;21.11;97.95
3434;BME280;1730;41.932;25.548;2023-04-21T09:38:25;98571.06;;;21.04;96.70
3434;BME280;1730;41.932;25.548;2023-04-21T09:40:57;98571.78;;;20.88;100.00
3434;BME280;1730;41.932;25.548;2023-04-21T09:43:23;98576.31;;;21.18;100.00
3434;BME280;1730;41.932;25.548;2023-04-21T09:45:49;98570.56;;;20.73;100.00
3434;BME280;1730;41.932;25.548;2023-04-21T09:48:16;98562.22;;;20.91;100.00
3434;BME280;1730;41.932;25.548;2023-04-21T09:50:42;98575.97;;;21.14;99.34
3434;BME280;1730;41.932;25.548;2023-04-21T09:53:13;98574.53;;;21.23;100.00
3434;BME280;1730;41.932;25.548;2023-04-21T09:55:40;98570.34;;;21.21;94.17
3434;BME280;1730;41.932;25.548;2023-04-21T09:58:06;98568.50;;;21.49;91.80
3434;BME280;1730;41.932;25.548;2023-04-21T10:00:34;98570.81;;;21.18;93.34
3434;BME280;1730;41.932;25.548;2023-04-21T10:03:04;98570.41;;;21.49;96.00
3434;BME280;1730;41.932;25.548;2023-04-21T10:05:35;98564.19;;;21.42;95.21
3434;BME280;1730;41.932;25.548;2023-04-21T10:08:02;98530.81;;;21.45;92.45
3434;BME280;1730;41.932;25.548;2023-04-21T10:10:29;98549.22;;;21.09;91.67
3434;BME280;1730;41.932;25.548;2023-04-21T10:13:00;98555.75;;;21.43;92.89
3434;BME280;1730;41.932;25.548;2023-04-21T10:15:36;98561.19;;;21.95;88.74
3434;BME280;1730;41.932;25.548;2023-04-21T10:21:01;98557.34;;;22.24;89.20
3434;BME280;1730;41.932;25.548;2023-04-21T10:23:30;98553.75;;;22.40;85.21
3434;BME280;1730;41.932;25.548;2023-04-21T10:26:10;98553.59;;;22.64;83.17
3434;BME280;1730;41.932;25.548;2023-04-21T10:39:09;98548.25;;;22.07;69.50
3434;BME280;1730;41.932;25.548;2023-04-21T10:41:42;98495.03;;;21.68;67.07
3434;BME280;1730;41.932;25.548;2023-04-21T10:44:12;98528.75;;;21.52;65.27
3434;BME280;1730;41.932;25.548;2023-04-21T10:46:39;98533.94;;;22.22;58.80
3434;BME280;1730;41.932;25.548;2023-04-21T10:49:28;98570.44;;;22.06;55.63
3434;BME280;1730;41.932;25.548;2023-04-21T10:54:23;98531.13;;;22.33;53.17
3434;BME280;1730;41.932;25.548;2023-04-21T10:56:53;98526.62;;;22.44;54.01
3434;BME280;1730;41.932;25.548;2023-04-21T10:59:19;98530.37;;;22.71;55.53
3434;BME280;1730;41.932;25.548;2023-04-21T11:01:45;98510.62;;;22.58;59.43
3434;BME280;1730;41.932;25.548;2023-04-21T11:04:15;98495.97;;;22.19;59.61
3434;BME280;1730;41.932;25.548;2023-04-21T11:06:41;98539.03;;;22.63;57.02
3434;BME280;1730;41.932;25.548;2023-04-21T11:09:06;98540.34;;;22.44;51.76
3434;BME280;1730;41.932;25.548;2023-04-21T11:11:33;98224.31;;;20.62;51.33
3434;BME280;1730;41.932;25.548;2023-04-21T11:14:01;98533.28;;;22.81;51.84
3434;BME280;1730;41.932;25.548;2023-04-21T11:16:26;98501.03;;;23.37;49.93
3434;BME280;1730;41.932;25.548;2023-04-21T11:18:55;98541.09;;;22.56;50.07
3434;BME280;1730;41.932;25.548;2023-04-21T11:21:21;98518.22;;;23.06;51.11
3434;BME280;1730;41.932;25.548;2023-04-21T11:26:14;98556.81;;;23.11;52.51
3434;BME280;1730;41.932;25.548;2023-04-21T11:28:40;98543.44;;;23.19;54.68
3434;BME280;1730;41.932;25.548;2023-04-21T11:31:06;98461.16;;;22.96;53.59
3434;BME280;1730;41.932;25.548;2023-04-21T11:33:36;98518.00;;;23.51;58.78
3434;BME280;1730;41.932;25.548;2023-04-21T11:36:04;98538.72;;;23.80;57.48
3434;BME280;1730;41.932;25.548;2023-04-21T11:38:40;98544.16;;;24.02;58.19
3434;BME280;1730;41.932;25.548;2023-04-21T11:41:05;98402.00;;;22.33;59.21
3434;BME280;1730;41.932;25.548;2023-04-21T11:43:31;98529.06;;;23.12;59.67
3434;BME280;1730;41.932;25.548;2023-04-21T11:46:16;98518.16;;;23.01;60.98
3434;BME280;1730;41.932;25.548;2023-04-21T11:48:43;98412.25;;;22.76;61.11
3434;BME280;1730;41.932;25.548;2023-04-21T11:51:16;98536.44;;;22.73;60.47
3434;BME280;1730;41.932;25.548;2023-04-21T11:53:45;98538.44;;;22.61;62.44
3434;BME280;1730;41.932;25.548;2023-04-21T11:56:11;98539.50;;;22.94;62.00
3434;BME280;1730;41.932;25.548;2023-04-21T11:58:37;98507.13;;;22.79;61.79
3434;BME280;1730;41.932;25.548;2023-04-21T12:01:07;98538.88;;;22.70;61.84
3434;BME280;1730;41.932;25.548;2023-04-21T12:03:34;98536.28;;;22.80;59.10
3434;BME280;1730;41.932;25.548;2023-04-21T12:05:59;98515.84;;;22.92;59.61
3434;BME280;1730;41.932;25.548;2023-04-21T12:08:28;98546.50;;;22.51;84.33
3434;BME280;1730;41.932;25.548;2023-04-21T12:10:55;98551.06;;;23.12;91.90
3434;BME280;1730;41.932;25.548;2023-04-21T12:13:22;98553.00;;;23.33;82.68
3434;BME280;1730;41.932;25.548;2023-04-21T12:15:47;98422.38;;;21.71;91.65
3434;BME280;1730;41.932;25.548;2023-04-21T12:18:13;98555.00;;;22.66;96.03
3434;BME280;1730;41.932;25.548;2023-04-21T12:20:48;98513.94;;;21.93;96.49
3434;BME280;1730;41.932;25.548;2023-04-21T12:23:14;98539.75;;;22.25;95.15
3434;BME280;1730;41.932;25.548;2023-04-21T12:25:40;98401.44;;;21.98;90.32
3434;BME280;1730;41.932;25.548;2023-04-21T12:28:07;98175.44;;;20.14;89.48
3434;BME280;1730;41.932;25.548;2023-04-21T12:30:33;98533.69;;;22.40;87.99
3434;BME280;1730;41.932;25.548;2023-04-21T12:32:59;98538.78;;;22.81;88.56
3434;BME280;1730;41.932;25.548;2023-04-21T12:35:25;98520.34;;;22.65;84.70
3434;BME280;1730;41.932;25.548;2023-04-21T12:37:51;98528.44;;;22.88;85.97
3434;BME280;1730;41.932;25.548;2023-04-21T12:40:17;98523.03;;;23.15;82.36
3434;BME280;1730;41.932;25.548;2023-04-21T12:42:42;98524.00;;;22.21;83.92
3434;BME280;1730;41.932;25.548;2023-04-21T12:45:08;98467.88;;;21.83;85.23
3434;BME280;1730;41.932;25.548;2023-04-21T12:47:35;98519.22;;;22.28;84.83
3434;BME280;1730;41.932;25.548;2023-04-21T12:50:01;98517.38;;;22.33;84.66
3434;BME280;1730;41.932;25.548;2023-04-21T12:52:27;98520.88;;;22.79;81.60
3434;BME280;1730;41.932;25.548;2023-04-21T12:54:53;98423.63;;;22.46;79.42
3434;BME280;1730;41.932;25.548;2023-04-21T12:57:19;98430.69;;;22.42;76.34
3434;BME280;1730;41.932;25.548;2023-04-21T12:59:45;98517.53;;;22.27;79.78
3434;BME280;1730;41.932;25.548;2023-04-21T13:02:11;98509.81;;;22.40;79.67
3434;BME280;1730;41.932;25.548;2023-04-21T13:04:36;98515.37;;;22.29;79.80
3434;BME280;1730;41.932;25.548;2023-04-21T13:07:03;98512.72;;;22.51;80.47
3434;BME280;1730;41.932;25.548;2023-04-21T13:09:29;98367.72;;;21.69;79.27
3434;BME280;1730;41.932;25.548;2023-04-21T13:11:55;98516.69;;;22.43;83.76
3434;BME280;1730;41.932;25.548;2023-04-21T13:14:20;98521.75;;;22.01;80.42
3434;BME280;1730;41.932;25.548;2023-04-21T13:16:46;98514.37;;;22.01;83.13